sensor_id;sensor_type;location;lat;lon;timestamp;P1;durP1;ratioP1;P2;durP2;ratioP2
10045;SDS011;5063;50.878;4.742;2023-05-21T00:01:51;3.67;;;3.37;;
10045;SDS011;5063;50.878;4.742;2023-05-21T00:04:16;4.70;;;3.50;;
10045;SDS011;5063;50.878;4.742;2023-05-21T00:06:42;4.60;;;3.57;;
10045;SDS011;5063;50.878;4.742;2023-05-21T00:09:08;3.77;;;3.40;;
10045;SDS011;5063;50.878;4.742;2023-05-21T00:11:34;5.17;;;4.03;;
10045;SDS011;5063;50.878;4.742;2023-05-21T00:14:00;4.10;;;3.70;;
10045;SDS011;5063;50.878;4.742;2023-05-21T00:16:26;3.30;;;3.00;;
10045;SDS011;5063;50.878;4.742;2023-05-21T00:18:54;4.33;;;3.60;;
10045;SDS011;5063;50.878;4.742;2023-05-21T00:21:22;5.67;;;3.57;;
10045;SDS011;5063;50.878;4.742;2023-05-21T00:23:50;4.87;;;3.87;;
10045;SDS011;5063;50.878;4.742;2023-05-21T00:26:19;5.17;;;3.63;;
10045;SDS011;5063;50.878;4.742;2023-05-21T00:28:45;5.30;;;3.97;;
10045;SDS011;5063;50.878;4.742;2023-05-21T00:31:11;4.83;;;3.40;;
10045;SDS011;5063;50.878;4.742;2023-05-21T00:33:37;5.23;;;3.70;;
10045;SDS011;5063;50.878;4.742;2023-05-21T00:36:03;4.47;;;4.07;;
10045;SDS011;5063;50.878;4.742;2023-05-21T00:38:30;4.93;;;3.70;;
10045;SDS011;5063;50.878;4.742;2023-05-21T00:41:00;3.93;;;3.40;;
10045;SDS011;5063;50.878;4.742;2023-05-21T00:43:27;3.90;;;3.53;;
10045;SDS011;5063;50.878;4.742;2023-05-21T00:45:53;4.03;;;3.60;;
10045;SDS011;5063;50.878;4.742;2023-05-21T00:48:20;3.77;;;3.47;;
10045;SDS011;5063;50.878;4.742;2023-05-21T00:50:47;3.97;;;3.57;;
10045;SDS011;5063;50.878;4.742;2023-05-21T00:53:15;7.87;;;4.03;;
10045;SDS011;5063;50.878;4.742;2023-05-21T00:55:43;3.60;;;3.30;;
10045;SDS011;5063;50.878;4.742;2023-05-21T00:58:10;4.40;;;4.00;;
10045;SDS011;5063;50.878;4.742;2023-05-21T01:00:36;3.90;;;3.60;;
10045;SDS011;5063;50.878;4.742;2023-05-21T01:03:02;4.87;;;4.13;;
10045;SDS011;5063;50.878;4.742;2023-05-21T01:05:29;4.20;;;3.90;;
10045;SDS011;5063;50.878;4.742;2023-05-21T01:07:55;5.20;;;3.87;;
10045;SDS011;5063;50.878;4.742;2023-05-21T01:10:22;5.00;;;4.53;;
10045;SDS011;5063;50.878;4.742;2023-05-21T01:12:49;4.80;;;3.73;;
10045;SDS011;5063;50.878;4.742;2023-05-21T01:15:16;5.37;;;4.30;;
10045;SDS011;5063;50.878;4.742;2023-05-21T01:17:42;5.27;;;4.43;;
10045;SDS011;5063;50.878;4.742;2023-05-21T01:20:13;6.73;;;4.43;;
10045;SDS011;5063;50.878;4.742;2023-05-21T01:22:48;5.60;;;4.00;;
10045;SDS011;5063;50.878;4.742;2023-05-21T01:25:14;3.73;;;3.37;;
10045;SDS011;5063;50.878;4.742;2023-05-21T01:27:39;3.90;;;3.60;;
10045;SDS011;5063;50.878;4.742;2023-05-21T01:30:05;3.60;;;3.30;;
10045;SDS011;5063;50.878;4.742;2023-05-21T01:32:37;4.30;;;3.90;;
10045;SDS011;5063;50.878;4.742;2023-05-21T01:35:07;4.50;;;4.10;;
10045;SDS011;5063;50.878;4.742;2023-05-21T01:40:25;4.80;;;4.33;;
10045;SDS011;5063;50.878;4.742;2023-05-21T01:43:11;4.90;;;4.50;;
10045;SDS011;5063;50.878;4.742;2023-05-21T01:45:38;4.00;;;3.60;;
10045;SDS011;5063;50.878;4.742;2023-05-21T01:48:06;5.03;;;4.30;;
10045;SDS011;5063;50.878;4.742;2023-05-21T01:50:33;4.30;;;3.90;;
10045;SDS011;5063;50.878;4.742;2023-05-21T01:53:00;4.40;;;4.00;;
10045;SDS011;5063;50.878;4.742;2023-05-21T01:55:27;4.47;;;4.07;;
10045;SDS011;5063;50.878;4.742;2023-05-21T01:57:54;4.23;;;3.80;;
10045;SDS011;5063;50.878;4.742;2023-05-21T02:00:21;5.20;;;4.33;;
10045;SDS011;5063;50.878;4.742;2023-05-21T02:02:48;5.53;;;4.20;;
10045;SDS011;5063;50.878;4.742;2023-05-21T02:05:14;6.73;;;4.40;;
10045;SDS011;5063;50.878;4.742;2023-05-21T02:07:41;4.57;;;3.93;;
10045;SDS011;5063;50.878;4.742;2023-05-21T02:10:08;4.80;;;4.30;;
10045;SDS011;5063;50.878;4.742;2023-05-21T02:12:34;4.43;;;4.03;;
10045;SDS011;5063;50.878;4.742;2023-05-21T02:15:00;5.47;;;3.80;;
10045;SDS011;5063;50.878;4.742;2023-05-21T02:17:26;4.90;;;4.10;;
10045;SDS011;5063;50.878;4.742;2023-05-21T02:19:55;4.73;;;4.33;;
10045;SDS011;5063;50.878;4.742;2023-05-21T02:22:21;4.07;;;3.60;;
10045;SDS011;5063;50.878;4.742;2023-05-21T02:24:47;4.37;;;4.00;;
10045;SDS011;5063;50.878;4.742;2023-05-21T02:27:13;4.20;;;3.67;;
10045;SDS011;5063;50.878;4.742;2023-05-21T02:29:41;4.33;;;3.93;;
10045;SDS011;5063;50.878;4.742;2023-05-21T02:32:07;5.60;;;4.00;;
10045;SDS011;5063;50.878;4.742;2023-05-21T02:34:33;3.87;;;3.57;;
10045;SDS011;5063;50.878;4.742;2023-05-21T02:37:01;4.23;;;3.83;;
10045;SDS011;5063;50.878;4.742;2023-05-21T02:39:27;6.53;;;4.10;;
10045;SDS011;5063;50.878;4.742;2023-05-21T02:41:52;4.90;;;4.23;;
10045;SDS011;5063;50.878;4.742;2023-05-21T02:44:18;4.30;;;3.90;;
10045;SDS011;5063;50.878;4.742;2023-05-21T02:46:45;6.77;;;4.47;;
10045;SDS011;5063;50.878;4.742;2023-05-21T02:49:10;4.77;;;4.27;;
10045;SDS011;5063;50.878;4.742;2023-05-21T02:51:36;4.97;;;4.17;;
10045;SDS011;5063;50.878;4.742;2023-05-21T02:54:02;5.47;;;4.63;;
10045;SDS011;5063;50.878;4.742;2023-05-21T02:56:28;5.27;;;4.50;;
10045;SDS011;5063;50.878;4.742;2023-05-21T02:58:53;4.63;;;4.07;;
10045;SDS011;5063;50.878;4.742;2023-05-21T03:01:19;4.73;;;4.13;;
10045;SDS011;5063;50.878;4.742;2023-05-21T03:03:45;5.10;;;4.57;;
10045;SDS011;5063;50.878;4.742;2023-05-21T03:06:11;5.00;;;4.60;;
10045;SDS011;5063;50.878;4.742;2023-05-21T03:08:36;5.57;;;4.43;;
10045;SDS011;5063;50.878;4.742;2023-05-21T03:11:03;6.07;;;5.33;;
10045;SDS011;5063;50.878;4.742;2023-05-21T03:13:29;5.27;;;4.70;;
10045;SDS011;5063;50.878;4.742;2023-05-21T03:15:54;5.50;;;4.90;;
10045;SDS011;5063;50.878;4.742;2023-05-21T03:18:23;5.20;;;4.70;;
10045;SDS011;5063;50.878;4.742;2023-05-21T03:20:49;6.07;;;5.07;;
10045;SDS011;5063;50.878;4.742;2023-05-21T03:23:15;7.50;;;4.80;;
10045;SDS011;5063;50.878;4.742;2023-05-21T03:25:40;5.23;;;4.73;;
10045;SDS011;5063;50.878;4.742;2023-05-21T03:28:06;6.20;;;5.30;;
10045;SDS011;5063;50.878;4.742;2023-05-21T03:30:34;6.03;;;5.10;;
10045;SDS011;5063;50.878;4.742;2023-05-21T03:33:01;4.97;;;4.57;;
10045;SDS011;5063;50.878;4.742;2023-05-21T03:35:27;5.67;;;5.07;;
10045;SDS011;5063;50.878;4.742;2023-05-21T03:37:53;6.90;;;5.17;;
10045;SDS011;5063;50.878;4.742;2023-05-21T03:40:19;6.63;;;5.00;;
10045;SDS011;5063;50.878;4.742;2023-05-21T03:42:46;8.33;;;5.30;;
10045;SDS011;5063;50.878;4.742;2023-05-21T03:45:12;6.70;;;4.83;;
10045;SDS011;5063;50.878;4.742;2023-05-21T03:47:37;7.10;;;6.33;;
10045;SDS011;5063;50.878;4.742;2023-05-21T03:50:03;5.50;;;5.00;;
10045;SDS011;5063;50.878;4.742;2023-05-21T03:52:30;7.60;;;5.10;;
10045;SDS011;5063;50.878;4.742;2023-05-21T03:54:56;7.20;;;5.00;;
10045;SDS011;5063;50.878;4.742;2023-05-21T03:57:21;5.80;;;5.20;;
10045;SDS011;5063;50.878;4.742;2023-05-21T03:59:47;6.77;;;5.40;;
10045;SDS011;5063;50.878;4.742;2023-05-21T04:02:13;5.63;;;5.07;;
10045;SDS011;5063;50.878;4.742;2023-05-21T04:04:40;6.27;;;5.13;;
10045;SDS011;5063;50.878;4.742;2023-05-21T04:07:07;5.90;;;5.27;;
10045;SDS011;5063;50.878;4.742;2023-05-21T04:09:39;5.67;;;5.10;;
10045;SDS011;5063;50.878;4.742;2023-05-21T04:12:06;6.43;;;5.13;;
10045;SDS011;5063;50.878;4.742;2023-05-21T04:14:32;6.13;;;5.07;;
10045;SDS011;5063;50.878;4.742;2023-05-21T04:16:58;7.57;;;5.40;;
10045;SDS011;5063;50.878;4.742;2023-05-21T04:19:24;6.73;;;5.20;;
10045;SDS011;5063;50.878;4.742;2023-05-21T04:21:50;7.27;;;5.37;;
10045;SDS011;5063;50.878;4.742;2023-05-21T04:24:16;6.50;;;5.27;;
10045;SDS011;5063;50.878;4.742;2023-05-21T04:26:41;6.37;;;5.50;;
10045;SDS011;5063;50.878;4.742;2023-05-21T04:29:08;5.87;;;5.30;;
10045;SDS011;5063;50.878;4.742;2023-05-21T04:31:34;7.13;;;5.03;;
10045;SDS011;5063;50.878;4.742;2023-05-21T04:34:00;6.40;;;5.80;;
10045;SDS011;5063;50.878;4.742;2023-05-21T04:36:25;5.60;;;4.93;;
10045;SDS011;5063;50.878;4.742;2023-05-21T04:38:53;6.50;;;5.30;;
10045;SDS011;5063;50.878;4.742;2023-05-21T04:41:19;5.87;;;5.23;;
10045;SDS011;5063;50.878;4.742;2023-05-21T04:43:45;5.87;;;4.83;;
10045;SDS011;5063;50.878;4.742;2023-05-21T04:46:11;6.23;;;5.63;;
10045;SDS011;5063;50.878;4.742;2023-05-21T04:48:36;5.77;;;5.27;;
10045;SDS011;5063;50.878;4.742;2023-05-21T04:51:03;7.63;;;5.40;;
10045;SDS011;5063;50.878;4.742;2023-05-21T04:53:30;6.07;;;4.90;;
10045;SDS011;5063;50.878;4.742;2023-05-21T04:55:56;7.53;;;5.17;;
10045;SDS011;5063;50.878;4.742;2023-05-21T04:58:23;6.37;;;4.90;;
10045;SDS011;5063;50.878;4.742;2023-05-21T05:00:50;5.30;;;4.67;;
10045;SDS011;5063;50.878;4.742;2023-05-21T05:03:17;5.07;;;4.57;;
10045;SDS011;5063;50.878;4.742;2023-05-21T05:05:43;9.17;;;5.70;;
10045;SDS011;5063;50.878;4.742;2023-05-21T05:08:09;6.67;;;5.00;;
10045;SDS011;5063;50.878;4.742;2023-05-21T05:10:35;5.90;;;4.83;;
10045;SDS011;5063;50.878;4.742;2023-05-21T05:13:01;5.10;;;4.60;;
10045;SDS011;5063;50.878;4.742;2023-05-21T05:15:27;5.40;;;4.90;;
10045;SDS011;5063;50.878;4.742;2023-05-21T05:17:53;6.77;;;4.97;;
10045;SDS011;5063;50.878;4.742;2023-05-21T05:20:18;5.80;;;4.97;;
10045;SDS011;5063;50.878;4.742;2023-05-21T05:22:44;5.40;;;4.80;;
10045;SDS011;5063;50.878;4.742;2023-05-21T05:25:10;5.57;;;5.07;;
10045;SDS011;5063;50.878;4.742;2023-05-21T05:27:36;7.13;;;5.63;;
10045;SDS011;5063;50.878;4.742;2023-05-21T05:30:02;8.43;;;5.47;;
10045;SDS011;5063;50.878;4.742;2023-05-21T05:32:28;6.27;;;5.03;;
10045;SDS011;5063;50.878;4.742;2023-05-21T05:34:53;7.10;;;5.27;;
10045;SDS011;5063;50.878;4.742;2023-05-21T05:37:19;7.00;;;5.37;;
10045;SDS011;5063;50.878;4.742;2023-05-21T05:39:45;6.67;;;5.20;;
10045;SDS011;5063;50.878;4.742;2023-05-21T05:42:11;5.33;;;4.83;;
10045;SDS011;5063;50.878;4.742;2023-05-21T05:44:36;5.87;;;4.77;;
10045;SDS011;5063;50.878;4.742;2023-05-21T05:47:02;6.60;;;5.40;;
10045;SDS011;5063;50.878;4.742;2023-05-21T05:49:33;6.60;;;5.50;;
10045;SDS011;5063;50.878;4.742;2023-05-21T05:51:58;5.27;;;4.87;;
10045;SDS011;5063;50.878;4.742;2023-05-21T05:54:25;7.60;;;5.47;;
10045;SDS011;5063;50.878;4.742;2023-05-21T05:56:50;8.47;;;5.30;;
10045;SDS011;5063;50.878;4.742;2023-05-21T05:59:16;5.53;;;5.03;;
10045;SDS011;5063;50.878;4.742;2023-05-21T06:01:42;8.77;;;5.10;;
10045;SDS011;5063;50.878;4.742;2023-05-21T06:04:08;6.50;;;5.30;;
10045;SDS011;5063;50.878;4.742;2023-05-21T06:06:33;7.73;;;5.90;;
10045;SDS011;5063;50.878;4.742;2023-05-21T06:09:00;9.60;;;6.10;;
10045;SDS011;5063;50.878;4.742;2023-05-21T06:11:26;6.97;;;5.37;;
10045;SDS011;5063;50.878;4.742;2023-05-21T06:13:52;8.33;;;5.80;;
10045;SDS011;5063;50.878;4.742;2023-05-21T06:16:18;6.43;;;5.83;;
10045;SDS011;5063;50.878;4.742;2023-05-21T06:18:44;6.20;;;5.57;;
10045;SDS011;5063;50.878;4.742;2023-05-21T06:21:09;9.17;;;6.20;;
10045;SDS011;5063;50.878;4.742;2023-05-21T06:23:35;6.40;;;4.90;;
10045;SDS011;5063;50.878;4.742;2023-05-21T06:26:02;6.17;;;5.40;;
10045;SDS011;5063;50.878;4.742;2023-05-21T06:28:28;6.37;;;5.20;;
10045;SDS011;5063;50.878;4.742;2023-05-21T06:30:54;6.73;;;5.77;;
10045;SDS011;5063;50.878;4.742;2023-05-21T06:33:20;10.43;;;6.07;;
10045;SDS011;5063;50.878;4.742;2023-05-21T06:35:45;6.60;;;5.87;;
10045;SDS011;5063;50.878;4.742;2023-05-21T06:38:11;9.10;;;5.90;;
10045;SDS011;5063;50.878;4.742;2023-05-21T06:40:37;8.03;;;5.00;;
10045;SDS011;5063;50.878;4.742;2023-05-21T06:43:02;7.53;;;5.60;;
10045;SDS011;5063;50.878;4.742;2023-05-21T06:45:29;5.53;;;5.03;;
10045;SDS011;5063;50.878;4.742;2023-05-21T06:47:55;6.40;;;5.70;;
10045;SDS011;5063;50.878;4.742;2023-05-21T06:50:20;6.70;;;5.90;;
10045;SDS011;5063;50.878;4.742;2023-05-21T06:52:46;7.07;;;5.87;;
10045;SDS011;5063;50.878;4.742;2023-05-21T06:55:12;8.57;;;5.33;;
10045;SDS011;5063;50.878;4.742;2023-05-21T06:57:37;6.40;;;5.50;;
10045;SDS011;5063;50.878;4.742;2023-05-21T07:00:04;6.33;;;5.70;;
10045;SDS011;5063;50.878;4.742;2023-05-21T07:02:30;6.07;;;5.47;;
10045;SDS011;5063;50.878;4.742;2023-05-21T07:04:56;6.53;;;5.50;;
10045;SDS011;5063;50.878;4.742;2023-05-21T07:07:21;5.90;;;5.00;;
10045;SDS011;5063;50.878;4.742;2023-05-21T07:09:47;7.00;;;5.10;;
10045;SDS011;5063;50.878;4.742;2023-05-21T07:12:13;7.73;;;5.23;;
10045;SDS011;5063;50.878;4.742;2023-05-21T07:14:39;6.27;;;5.67;;
10045;SDS011;5063;50.878;4.742;2023-05-21T07:17:04;7.43;;;5.53;;
10045;SDS011;5063;50.878;4.742;2023-05-21T07:19:30;6.27;;;5.67;;
10045;SDS011;5063;50.878;4.742;2023-05-21T07:21:56;7.40;;;5.40;;
10045;SDS011;5063;50.878;4.742;2023-05-21T07:24:22;7.23;;;5.97;;
10045;SDS011;5063;50.878;4.742;2023-05-21T07:26:48;5.60;;;5.10;;
10045;SDS011;5063;50.878;4.742;2023-05-21T07:29:13;10.52;;;5.95;;
10045;SDS011;5063;50.878;4.742;2023-05-21T07:31:39;5.72;;;4.57;;
10045;SDS011;5063;50.878;4.742;2023-05-21T07:34:05;5.78;;;4.65;;
10045;SDS011;5063;50.878;4.742;2023-05-21T07:36:31;6.22;;;5.13;;
10045;SDS011;5063;50.878;4.742;2023-05-21T07:38:57;6.75;;;5.15;;
10045;SDS011;5063;50.878;4.742;2023-05-21T07:41:23;6.70;;;5.63;;
10045;SDS011;5063;50.878;4.742;2023-05-21T07:43:49;7.05;;;5.45;;
10045;SDS011;5063;50.878;4.742;2023-05-21T07:46:15;5.78;;;5.05;;
10045;SDS011;5063;50.878;4.742;2023-05-21T07:48:41;6.03;;;4.85;;
10045;SDS011;5063;50.878;4.742;2023-05-21T07:51:07;5.32;;;4.82;;
10045;SDS011;5063;50.878;4.742;2023-05-21T07:53:33;5.75;;;5.15;;
10045;SDS011;5063;50.878;4.742;2023-05-21T07:55:59;6.15;;;5.47;;
10045;SDS011;5063;50.878;4.742;2023-05-21T07:58:25;6.63;;;5.55;;
10045;SDS011;5063;50.878;4.742;2023-05-21T08:00:51;5.50;;;4.97;;
10045;SDS011;5063;50.878;4.742;2023-05-21T08:03:16;8.70;;;5.22;;
10045;SDS011;5063;50.878;4.742;2023-05-21T08:05:43;5.97;;;5.40;;
10045;SDS011;5063;50.878;4.742;2023-05-21T08:08:16;7.13;;;5.93;;
10045;SDS011;5063;50.878;4.742;2023-05-21T08:10:43;6.50;;;5.85;;
10045;SDS011;5063;50.878;4.742;2023-05-21T08:13:14;6.10;;;5.50;;
10045;SDS011;5063;50.878;4.742;2023-05-21T08:15:40;7.00;;;5.55;;
10045;SDS011;5063;50.878;4.742;2023-05-21T08:18:06;6.35;;;5.63;;
10045;SDS011;5063;50.878;4.742;2023-05-21T08:20:32;6.45;;;5.80;;
10045;SDS011;5063;50.878;4.742;2023-05-21T08:22:58;7.18;;;6.18;;
10045;SDS011;5063;50.878;4.742;2023-05-21T08:25:24;7.97;;;6.00;;
10045;SDS011;5063;50.878;4.742;2023-05-21T08:27:50;6.05;;;5.45;;
10045;SDS011;5063;50.878;4.742;2023-05-21T08:30:16;9.07;;;6.55;;
10045;SDS011;5063;50.878;4.742;2023-05-21T08:32:42;7.05;;;6.35;;
10045;SDS011;5063;50.878;4.742;2023-05-21T08:35:08;7.68;;;6.45;;
10045;SDS011;5063;50.878;4.742;2023-05-21T08:37:34;8.45;;;6.55;;
10045;SDS011;5063;50.878;4.742;2023-05-21T08:39:59;6.40;;;5.80;;
10045;SDS011;5063;50.878;4.742;2023-05-21T08:45:06;8.55;;;6.43;;
10045;SDS011;5063;50.878;4.742;2023-05-21T08:47:35;7.13;;;6.22;;
10045;SDS011;5063;50.878;4.742;2023-05-21T08:50:02;6.93;;;6.15;;
10045;SDS011;5063;50.878;4.742;2023-05-21T08:52:38;9.63;;;6.38;;
10045;SDS011;5063;50.878;4.742;2023-05-21T08:55:05;7.35;;;5.95;;
10045;SDS011;5063;50.878;4.742;2023-05-21T08:57:32;6.85;;;6.15;;
10045;SDS011;5063;50.878;4.742;2023-05-21T08:59:58;6.93;;;6.32;;
10045;SDS011;5063;50.878;4.742;2023-05-21T09:02:26;7.25;;;5.88;;
10045;SDS011;5063;50.878;4.742;2023-05-21T09:04:54;8.48;;;6.47;;
10045;SDS011;5063;50.878;4.742;2023-05-21T09:07:23;7.22;;;6.40;;
10045;SDS011;5063;50.878;4.742;2023-05-21T09:10:00;7.43;;;6.43;;
10045;SDS011;5063;50.878;4.742;2023-05-21T09:12:30;7.75;;;6.45;;
10045;SDS011;5063;50.878;4.742;2023-05-21T09:14:56;7.18;;;6.40;;
10045;SDS011;5063;50.878;4.742;2023-05-21T09:17:24;7.32;;;6.55;;
10045;SDS011;5063;50.878;4.742;2023-05-21T09:22:48;8.98;;;6.90;;
10045;SDS011;5063;50.878;4.742;2023-05-21T09:25:15;8.95;;;6.60;;
10045;SDS011;5063;50.878;4.742;2023-05-21T09:27:45;6.95;;;6.18;;
10045;SDS011;5063;50.878;4.742;2023-05-21T09:30:14;9.48;;;7.35;;
10045;SDS011;5063;50.878;4.742;2023-05-21T09:32:42;10.40;;;7.53;;
10045;SDS011;5063;50.878;4.742;2023-05-21T09:35:12;10.98;;;6.97;;
10045;SDS011;5063;50.878;4.742;2023-05-21T09:37:40;8.95;;;7.53;;
10045;SDS011;5063;50.878;4.742;2023-05-21T09:40:15;9.50;;;7.72;;
10045;SDS011;5063;50.878;4.742;2023-05-21T09:42:53;7.60;;;6.80;;
10045;SDS011;5063;50.878;4.742;2023-05-21T09:45:19;9.27;;;8.20;;
10045;SDS011;5063;50.878;4.742;2023-05-21T09:47:47;8.65;;;7.30;;
10045;SDS011;5063;50.878;4.742;2023-05-21T09:50:21;10.13;;;8.70;;
10045;SDS011;5063;50.878;4.742;2023-05-21T09:52:48;8.52;;;7.63;;
10045;SDS011;5063;50.878;4.742;2023-05-21T09:55:17;8.75;;;7.90;;
10045;SDS011;5063;50.878;4.742;2023-05-21T09:57:46;8.85;;;7.95;;
10045;SDS011;5063;50.878;4.742;2023-05-21T10:02:43;10.18;;;7.38;;
10045;SDS011;5063;50.878;4.742;2023-05-21T10:05:10;8.95;;;7.68;;
10045;SDS011;5063;50.878;4.742;2023-05-21T10:07:37;9.90;;;8.77;;
10045;SDS011;5063;50.878;4.742;2023-05-21T10:10:05;8.68;;;7.78;;
10045;SDS011;5063;50.878;4.742;2023-05-21T10:12:37;9.85;;;8.75;;
10045;SDS011;5063;50.878;4.742;2023-05-21T10:15:08;9.68;;;8.68;;
10045;SDS011;5063;50.878;4.742;2023-05-21T10:17:36;11.20;;;7.97;;
10045;SDS011;5063;50.878;4.742;2023-05-21T10:20:03;11.45;;;7.95;;
10045;SDS011;5063;50.878;4.742;2023-05-21T10:22:31;10.20;;;8.70;;
10045;SDS011;5063;50.878;4.742;2023-05-21T10:24:58;10.35;;;7.68;;
10045;SDS011;5063;50.878;4.742;2023-05-21T10:27:27;9.13;;;8.23;;
10045;SDS011;5063;50.878;4.742;2023-05-21T10:29:54;8.43;;;7.63;;
10045;SDS011;5063;50.878;4.742;2023-05-21T10:32:23;10.40;;;8.65;;
10045;SDS011;5063;50.878;4.742;2023-05-21T10:34:51;9.40;;;8.30;;
10045;SDS011;5063;50.878;4.742;2023-05-21T10:37:18;9.10;;;8.20;;
10045;SDS011;5063;50.878;4.742;2023-05-21T10:39:48;9.00;;;8.10;;
10045;SDS011;5063;50.878;4.742;2023-05-21T10:45:08;10.20;;;9.10;;
10045;SDS011;5063;50.878;4.742;2023-05-21T10:53:25;14.57;;;8.98;;
10045;SDS011;5063;50.878;4.742;2023-05-21T10:59:06;12.00;;;9.10;;
10045;SDS011;5063;50.878;4.742;2023-05-21T11:01:42;11.07;;;9.32;;
10045;SDS011;5063;50.878;4.742;2023-05-21T11:04:09;14.95;;;10.57;;
10045;SDS011;5063;50.878;4.742;2023-05-21T11:06:36;11.95;;;9.20;;
10045;SDS011;5063;50.878;4.742;2023-05-21T11:09:11;12.43;;;9.38;;
10045;SDS011;5063;50.878;4.742;2023-05-21T11:14:26;10.50;;;9.40;;
10045;SDS011;5063;50.878;4.742;2023-05-21T11:17:34;11.10;;;10.00;;
10045;SDS011;5063;50.878;4.742;2023-05-21T11:20:11;11.40;;;10.30;;
10045;SDS011;5063;50.878;4.742;2023-05-21T11:22:41;10.98;;;9.85;;
10045;SDS011;5063;50.878;4.742;2023-05-21T11:25:07;12.68;;;11.38;;
10045;SDS011;5063;50.878;4.742;2023-05-21T11:27:33;11.60;;;10.48;;
10045;SDS011;5063;50.878;4.742;2023-05-21T11:35:58;13.82;;;11.30;;
10045;SDS011;5063;50.878;4.742;2023-05-21T11:38:30;12.23;;;10.88;;
10045;SDS011;5063;50.878;4.742;2023-05-21T11:41:00;16.40;;;10.77;;
10045;SDS011;5063;50.878;4.742;2023-05-21T11:43:27;11.73;;;10.52;;
10045;SDS011;5063;50.878;4.742;2023-05-21T11:45:53;13.82;;;10.32;;
10045;SDS011;5063;50.878;4.742;2023-05-21T11:48:25;10.48;;;9.48;;
10045;SDS011;5063;50.878;4.742;2023-05-21T11:50:52;11.90;;;10.30;;
10045;SDS011;5063;50.878;4.742;2023-05-21T11:53:17;11.98;;;10.23;;
10045;SDS011;5063;50.878;4.742;2023-05-21T11:55:43;11.43;;;10.27;;
10045;SDS011;5063;50.878;4.742;2023-05-21T11:58:11;12.48;;;10.93;;
10045;SDS011;5063;50.878;4.742;2023-05-21T12:00:39;12.15;;;10.90;;
10045;SDS011;5063;50.878;4.742;2023-05-21T12:03:05;12.57;;;11.00;;
10045;SDS011;5063;50.878;4.742;2023-05-21T12:05:49;12.63;;;10.20;;
10045;SDS011;5063;50.878;4.742;2023-05-21T12:08:21;11.73;;;10.52;;
10045;SDS011;5063;50.878;4.742;2023-05-21T12:10:53;12.05;;;10.75;;
10045;SDS011;5063;50.878;4.742;2023-05-21T12:13:22;14.05;;;10.40;;
10045;SDS011;5063;50.878;4.742;2023-05-21T12:15:51;10.40;;;9.32;;
10045;SDS011;5063;50.878;4.742;2023-05-21T12:18:18;15.02;;;10.82;;
10045;SDS011;5063;50.878;4.742;2023-05-21T12:20:44;12.02;;;10.63;;
10045;SDS011;5063;50.878;4.742;2023-05-21T12:23:22;11.45;;;10.35;;
10045;SDS011;5063;50.878;4.742;2023-05-21T12:25:48;12.02;;;10.82;;
10045;SDS011;5063;50.878;4.742;2023-05-21T12:28:15;11.82;;;10.50;;
10045;SDS011;5063;50.878;4.742;2023-05-21T12:30:41;13.95;;;10.70;;
10045;SDS011;5063;50.878;4.742;2023-05-21T12:33:07;11.48;;;10.23;;
10045;SDS011;5063;50.878;4.742;2023-05-21T12:35:32;12.02;;;9.65;;
10045;SDS011;5063;50.878;4.742;2023-05-21T12:38:01;12.57;;;10.60;;
10045;SDS011;5063;50.878;4.742;2023-05-21T12:40:37;13.70;;;10.80;;
10045;SDS011;5063;50.878;4.742;2023-05-21T12:43:03;12.45;;;10.10;;
10045;SDS011;5063;50.878;4.742;2023-05-21T12:45:29;9.88;;;8.63;;
10045;SDS011;5063;50.878;4.742;2023-05-21T12:47:56;11.85;;;10.52;;
10045;SDS011;5063;50.878;4.742;2023-05-21T12:50:25;13.48;;;11.30;;
10045;SDS011;5063;50.878;4.742;2023-05-21T12:52:54;13.80;;;11.15;;
10045;SDS011;5063;50.878;4.742;2023-05-21T12:55:22;12.88;;;10.68;;
10045;SDS011;5063;50.878;4.742;2023-05-21T12:57:49;13.25;;;10.20;;
10045;SDS011;5063;50.878;4.742;2023-05-21T13:00:32;11.80;;;10.57;;
10045;SDS011;5063;50.878;4.742;2023-05-21T13:02:59;12.13;;;10.00;;
10045;SDS011;5063;50.878;4.742;2023-05-21T13:05:25;14.25;;;11.20;;
10045;SDS011;5063;50.878;4.742;2023-05-21T13:07:51;12.75;;;11.23;;
10045;SDS011;5063;50.878;4.742;2023-05-21T13:10:17;11.77;;;10.48;;
10045;SDS011;5063;50.878;4.742;2023-05-21T13:12:43;11.40;;;10.25;;
10045;SDS011;5063;50.878;4.742;2023-05-21T13:15:09;12.65;;;10.50;;
10045;SDS011;5063;50.878;4.742;2023-05-21T13:17:35;13.27;;;10.82;;
10045;SDS011;5063;50.878;4.742;2023-05-21T13:22:27;14.18;;;10.93;;
10045;SDS011;5063;50.878;4.742;2023-05-21T13:24:53;12.30;;;11.00;;
10045;SDS011;5063;50.878;4.742;2023-05-21T13:27:19;14.15;;;11.48;;
10045;SDS011;5063;50.878;4.742;2023-05-21T13:29:44;14.35;;;11.07;;
10045;SDS011;5063;50.878;4.742;2023-05-21T13:32:10;13.23;;;10.98;;
10045;SDS011;5063;50.878;4.742;2023-05-21T13:34:36;13.48;;;11.43;;
10045;SDS011;5063;50.878;4.742;2023-05-21T13:37:02;13.02;;;11.65;;
10045;SDS011;5063;50.878;4.742;2023-05-21T13:39:27;14.98;;;11.20;;
10045;SDS011;5063;50.878;4.742;2023-05-21T13:41:53;14.63;;;11.20;;
10045;SDS011;5063;50.878;4.742;2023-05-21T13:44:19;12.98;;;11.52;;
10045;SDS011;5063;50.878;4.742;2023-05-21T13:46:45;11.80;;;10.70;;
10045;SDS011;5063;50.878;4.742;2023-05-21T13:49:10;11.32;;;10.20;;
10045;SDS011;5063;50.878;4.742;2023-05-21T13:51:36;11.27;;;10.18;;
10045;SDS011;5063;50.878;4.742;2023-05-21T13:54:02;13.98;;;10.88;;
10045;SDS011;5063;50.878;4.742;2023-05-21T13:56:28;12.50;;;10.38;;
10045;SDS011;5063;50.878;4.742;2023-05-21T13:58:54;12.60;;;11.27;;
10045;SDS011;5063;50.878;4.742;2023-05-21T14:01:19;12.15;;;10.35;;
10045;SDS011;5063;50.878;4.742;2023-05-21T14:03:45;11.00;;;9.90;;
10045;SDS011;5063;50.878;4.742;2023-05-21T14:06:11;11.02;;;9.82;;
10045;SDS011;5063;50.878;4.742;2023-05-21T14:08:37;12.02;;;9.85;;
10045;SDS011;5063;50.878;4.742;2023-05-21T14:11:02;11.13;;;9.88;;
10045;SDS011;5063;50.878;4.742;2023-05-21T14:13:28;12.60;;;9.38;;
10045;SDS011;5063;50.878;4.742;2023-05-21T14:15:54;12.32;;;10.57;;
10045;SDS011;5063;50.878;4.742;2023-05-21T14:18:20;10.18;;;9.18;;
10045;SDS011;5063;50.878;4.742;2023-05-21T14:20:46;14.85;;;11.73;;
10045;SDS011;5063;50.878;4.742;2023-05-21T14:23:12;11.40;;;9.88;;
10045;SDS011;5063;50.878;4.742;2023-05-21T14:25:37;11.43;;;10.20;;
10045;SDS011;5063;50.878;4.742;2023-05-21T14:28:03;11.95;;;9.68;;
10045;SDS011;5063;50.878;4.742;2023-05-21T14:30:29;11.50;;;10.40;;
10045;SDS011;5063;50.878;4.742;2023-05-21T14:32:55;11.38;;;10.15;;
10045;SDS011;5063;50.878;4.742;2023-05-21T14:35:21;13.75;;;10.90;;
10045;SDS011;5063;50.878;4.742;2023-05-21T14:37:46;11.98;;;10.77;;
10045;SDS011;5063;50.878;4.742;2023-05-21T14:40:12;10.80;;;9.70;;
10045;SDS011;5063;50.878;4.742;2023-05-21T14:42:38;11.02;;;9.93;;
10045;SDS011;5063;50.878;4.742;2023-05-21T14:45:04;11.70;;;9.30;;
10045;SDS011;5063;50.878;4.742;2023-05-21T14:47:30;15.00;;;11.07;;
10045;SDS011;5063;50.878;4.742;2023-05-21T14:49:56;10.85;;;9.70;;
10045;SDS011;5063;50.878;4.742;2023-05-21T14:52:22;12.32;;;11.05;;
10045;SDS011;5063;50.878;4.742;2023-05-21T14:54:48;10.73;;;9.63;;
10045;SDS011;5063;50.878;4.742;2023-05-21T14:57:13;11.77;;;10.50;;
10045;SDS011;5063;50.878;4.742;2023-05-21T14:59:39;11.50;;;10.40;;
10045;SDS011;5063;50.878;4.742;2023-05-21T15:02:05;11.55;;;9.48;;
10045;SDS011;5063;50.878;4.742;2023-05-21T15:04:31;9.98;;;8.95;;
10045;SDS011;5063;50.878;4.742;2023-05-21T15:06:57;10.07;;;9.05;;
10045;SDS011;5063;50.878;4.742;2023-05-21T15:09:23;10.73;;;9.68;;
10045;SDS011;5063;50.878;4.742;2023-05-21T15:11:48;12.07;;;10.40;;
10045;SDS011;5063;50.878;4.742;2023-05-21T15:14:17;10.98;;;9.18;;
10045;SDS011;5063;50.878;4.742;2023-05-21T15:16:43;12.48;;;10.40;;
10045;SDS011;5063;50.878;4.742;2023-05-21T15:19:09;10.63;;;9.52;;
10045;SDS011;5063;50.878;4.742;2023-05-21T15:21:35;11.70;;;10.25;;
10045;SDS011;5063;50.878;4.742;2023-05-21T15:24:02;11.63;;;9.63;;
10045;SDS011;5063;50.878;4.742;2023-05-21T15:26:27;11.23;;;10.13;;
10045;SDS011;5063;50.878;4.742;2023-05-21T15:28:53;11.07;;;9.40;;